Time;durP1;ratioP1;P1;durP2;ratioP2;P2;SDS_P1;SDS_P2;PMS_P1;PMS_P2;Temp;Humidity;BMP_temperature;BMP_pressure;BME280_temperature;BME280_humidity;BME280_pressure;Samples;Min_cycle;Max_cycle;Signal;HPM_P1;HPM_P2
2020/12/22 00:01:52;;;;;;;6.60;4.97;;;13.40;99.90;;;;;;5059835;28;38611;-77
2020/12/22 00:04:18;;;;;;;6.07;4.10;;;13.40;99.90;;;;;;5022035;28;35879;-76
2020/12/22 00:06:47;;;;;;;5.43;4.60;;;13.40;99.90;;;;;;5034084;28;39603;-78
2020/12/22 00:09:13;;;;;;;6.55;4.53;;;13.40;99.90;;;;;;5030447;28;39169;-77
2020/12/22 00:11:39;;;;;;;8.88;5.03;;;13.40;99.90;;;;;;5059240;28;39337;-77
2020/12/22 00:14:05;;;;;;;7.00;5.18;;;13.40;99.90;;;;;;5040421;28;38521;-76
2020/12/22 00:16:38;;;;;;;10.77;5.55;;;13.30;99.90;;;;;;5047909;28;39449;-77
2020/12/22 00:19:05;;;;;;;10.95;5.43;;;13.40;99.90;;;;;;5031855;28;37365;-77
2020/12/22 00:21:37;;;;;;;6.28;5.20;;;13.40;99.90;;;;;;5038715;28;40778;-78
2020/12/22 00:24:03;;;;;;;;;;;13.40;99.90;;;;;;5037135;28;38973;-77
2020/12/22 00:26:30;;;;;;;7.38;5.13;;;13.40;99.90;;;;;;5052341;28;46640;-77
2020/12/22 00:28:56;;;;;;;8.73;5.03;;;13.40;99.90;;;;;;5043416;28;37968;-77
2020/12/22 00:31:25;;;;;;;9.50;4.93;;;13.40;99.90;;;;;;5038466;28;37780;-76
2020/12/22 00:33:51;;;;;;;5.82;4.50;;;13.40;99.90;;;;;;5044288;28;39683;-77
2020/12/22 00:36:17;;;;;;;7.82;4.57;;;13.40;99.90;;;;;;5030942;28;38414;-77
2020/12/22 00:38:44;;;;;;;7.88;3.90;;;13.40;99.90;;;;;;5024519;28;40158;-77
2020/12/22 00:41:17;;;;;;;16.17;4.20;;;13.40;99.90;;;;;;5036726;28;38006;-77
2020/12/22 00:43:43;;;;;;;4.65;3.72;;;13.30;99.90;;;;;;5043096;28;37742;-78
2020/12/22 00:46:15;;;;;;;3.70;3.30;;;13.30;99.90;;;;;;5036625;28;39086;-77
2020/12/22 00:48:45;;;;;;;5.07;3.53;;;13.30;99.90;;;;;;5035141;28;37006;-77
2020/12/22 00:51:19;;;;;;;4.10;3.40;;;13.30;99.90;;;;;;5050038;28;41084;-77
2020/12/22 00:53:45;;;;;;;4.60;3.42;;;13.30;99.90;;;;;;5036391;28;35823;-77
2020/12/22 00:56:12;;;;;;;3.58;3.13;;;13.30;99.90;;;;;;5038507;28;38858;-76
2020/12/22 00:58:38;;;;;;;4.35;3.47;;;13.30;99.90;;;;;;5041035;28;37790;-77
2020/12/22 01:01:04;;;;;;;4.93;2.92;;;13.30;99.90;;;;;;5037759;28;39373;-77
2020/12/22 01:03:31;;;;;;;3.58;2.90;;;13.30;99.90;;;;;;5032971;28;39772;-77
2020/12/22 01:05:57;;;;;;;4.13;2.55;;;13.20;99.90;;;;;;5051265;28;38611;-77
2020/12/22 01:08:23;;;;;;;3.78;2.53;;;13.20;99.90;;;;;;5042912;28;35960;-77
2020/12/22 01:10:49;;;;;;;4.82;2.22;;;13.20;99.90;;;;;;5055918;28;39455;-77
2020/12/22 01:13:15;;;;;;;3.95;1.70;;;13.20;99.90;;;;;;5030946;28;39309;-77
2020/12/22 01:15:44;;;;;;;2.95;1.90;;;13.30;99.90;;;;;;5053007;28;38262;-77
2020/12/22 01:18:13;;;;;;;3.45;1.67;;;13.30;99.90;;;;;;5041674;28;37664;-77
2020/12/22 01:20:42;;;;;;;3.47;1.80;;;13.30;99.90;;;;;;5036849;28;39548;-78
2020/12/22 01:23:08;;;;;;;1.35;1.25;;;13.30;99.90;;;;;;5038363;28;38637;-77
2020/12/22 01:25:34;;;;;;;2.40;1.70;;;13.30;99.90;;;;;;5064680;28;37562;-77
2020/12/22 01:28:00;;;;;;;5.97;1.80;;;13.30;99.90;;;;;;5042775;28;37427;-77
2020/12/22 01:30:26;;;;;;;7.30;2.08;;;13.40;99.90;;;;;;5059158;27;38670;-77
2020/12/22 01:32:52;;;;;;;5.57;1.92;;;13.40;99.90;;;;;;5044063;28;38477;-77
2020/12/22 01:35:18;;;;;;;7.53;2.30;;;13.50;99.90;;;;;;5051829;28;37985;-77
2020/12/22 01:37:44;;;;;;;3.22;2.25;;;13.50;99.90;;;;;;5036683;28;38389;-77
2020/12/22 01:40:10;;;;;;;5.70;2.78;;;13.50;99.90;;;;;;5039452;28;37639;-77
2020/12/22 01:42:41;;;;;;;4.70;2.40;;;13.50;99.90;;;;;;5053645;28;38493;-77
2020/12/22 01:45:07;;;;;;;6.97;2.70;;;13.50;99.90;;;;;;5061357;28;38006;-77
2020/12/22 01:47:34;;;;;;;5.15;3.13;;;13.50;99.90;;;;;;5045314;28;37899;-77
2020/12/22 01:50:00;;;;;;;3.08;2.70;;;13.60;99.90;;;;;;5059452;28;39403;-77
2020/12/22 01:52:26;;;;;;;5.72;2.72;;;13.60;99.90;;;;;;5041918;28;38695;-76
2020/12/22 01:54:52;;;;;;;4.10;2.17;;;13.60;99.90;;;;;;5040123;28;38649;-77
2020/12/22 01:57:19;;;;;;;4.13;2.30;;;13.70;99.90;;;;;;5039867;28;37730;-77
2020/12/22 01:59:45;;;;;;;4.75;1.70;;;13.60;99.90;;;;;;5052117;28;37913;-77
2020/12/22 02:02:11;;;;;;;5.45;2.10;;;13.60;99.90;;;;;;5044503;28;39798;-78
2020/12/22 02:04:37;;;;;;;6.85;2.10;;;13.60;99.90;;;;;;5040903;28;37619;-77
2020/12/22 02:07:04;;;;;;;5.85;1.25;;;13.60;99.90;;;;;;5055550;28;36113;-77
2020/12/22 02:09:30;;;;;;;5.72;1.23;;;13.60;99.90;;;;;;5050127;28;42177;-77
2020/12/22 02:11:56;;;;;;;7.88;2.50;;;13.60;99.90;;;;;;5049437;28;37518;-77
2020/12/22 02:14:22;;;;;;;6.13;1.52;;;13.50;99.90;;;;;;5044692;28;39074;-77
2020/12/22 02:16:48;;;;;;;4.97;1.10;;;13.50;99.90;;;;;;5041908;28;38534;-77
2020/12/22 02:19:15;;;;;;;9.45;1.63;;;13.40;99.90;;;;;;5031174;28;40169;-76
2020/12/22 02:21:41;;;;;;;5.03;1.50;;;13.40;99.90;;;;;;5034999;28;38602;-77
2020/12/22 02:24:07;;;;;;;3.97;1.10;;;13.40;99.90;;;;;;5031919;28;40186;-77
2020/12/22 02:26:33;;;;;;;7.07;1.73;;;13.40;99.90;;;;;;5053450;28;38174;-77
2020/12/22 02:28:59;;;;;;;9.90;1.60;;;13.30;99.90;;;;;;5061816;28;40214;-77
2020/12/22 02:31:26;;;;;;;8.68;1.85;;;13.40;99.90;;;;;;5048130;28;38687;-77
2020/12/22 02:33:53;;;;;;;9.93;2.05;;;13.30;99.90;;;;;;5037192;28;39316;-77
2020/12/22 02:36:19;;;;;;;9.70;1.55;;;13.30;99.90;;;;;;5031625;28;37452;-78
2020/12/22 02:38:45;;;;;;;11.70;1.90;;;13.30;99.90;;;;;;5027830;28;37589;-77
2020/12/22 02:41:12;;;;;;;14.38;2.00;;;13.30;99.90;;;;;;5061660;28;39405;-77
2020/12/22 02:43:41;;;;;;;11.25;1.63;;;13.30;99.90;;;;;;5040612;28;41995;-77
2020/12/22 02:46:07;;;;;;;9.25;1.95;;;13.30;99.90;;;;;;5042889;28;37309;-77
2020/12/22 02:48:34;;;;;;;11.45;2.28;;;13.30;99.90;;;;;;5047828;28;39802;-76
2020/12/22 02:51:15;;;;;;;15.00;1.95;;;13.30;99.90;;;;;;5030820;28;39135;-77
2020/12/22 02:53:41;;;;;;;16.95;2.22;;;13.30;99.90;;;;;;5029432;28;49028;-77
2020/12/22 02:56:16;;;;;;;9.88;2.38;;;13.30;99.90;;;;;;5059676;28;36321;-77
2020/12/22 02:58:45;;;;;;;9.57;2.88;;;13.30;99.90;;;;;;5040174;28;38494;-77
2020/12/22 03:01:11;;;;;;;11.23;2.25;;;13.30;99.90;;;;;;5056127;28;40246;-77
2020/12/22 03:03:40;;;;;;;13.50;2.10;;;13.30;99.90;;;;;;5048909;28;39383;-77
2020/12/22 03:06:10;;;;;;;9.35;1.90;;;13.30;99.90;;;;;;5045584;28;38062;-77
2020/12/22 03:08:39;;;;;;;15.23;2.97;;;13.30;99.90;;;;;;5036501;28;37972;-77
2020/12/22 03:11:06;;;;;;;10.35;2.63;;;13.30;99.90;;;;;;5043332;28;41427;-77
2020/12/22 03:13:35;;;;;;;18.42;2.90;;;13.30;99.90;;;;;;5043228;28;38515;-77
2020/12/22 03:16:01;;;;;;;14.35;2.88;;;13.30;99.90;;;;;;5048504;28;37304;-77
2020/12/22 03:18:27;;;;;;;11.70;2.78;;;13.30;99.90;;;;;;5038212;28;48629;-77
2020/12/22 03:20:53;;;;;;;16.90;2.45;;;13.20;99.90;;;;;;5052321;28;37955;-78
2020/12/22 03:23:19;;;;;;;14.45;2.17;;;13.20;99.90;;;;;;5033162;28;36497;-76
2020/12/22 03:25:49;;;;;;;16.00;2.60;;;13.30;99.90;;;;;;5050819;28;36787;-77
2020/12/22 03:28:15;;;;;;;13.00;2.90;;;13.30;99.90;;;;;;5042625;28;39953;-77
2020/12/22 03:30:41;;;;;;;15.18;2.45;;;13.20;99.90;;;;;;5059571;28;40528;-77
2020/12/22 03:33:07;;;;;;;12.68;2.47;;;13.30;99.90;;;;;;5035887;28;42768;-77
2020/12/22 03:35:33;;;;;;;12.63;2.05;;;13.20;99.90;;;;;;5031943;28;37105;-77
2020/12/22 03:37:59;;;;;;;9.57;1.73;;;13.20;99.90;;;;;;5030529;28;39089;-77
2020/12/22 03:40:26;;;;;;;17.25;2.70;;;13.30;99.90;;;;;;5038043;28;37166;-77
2020/12/22 03:43:00;;;;;;;14.50;2.53;;;13.30;99.90;;;;;;5055071;28;39398;-78
2020/12/22 03:45:26;;;;;;;11.07;2.38;;;13.30;99.90;;;;;;5039228;28;35901;-77
2020/12/22 03:47:56;;;;;;;13.52;2.33;;;13.20;99.90;;;;;;5035186;28;39475;-78
2020/12/22 03:50:22;;;;;;;9.82;2.00;;;13.20;99.90;;;;;;4967525;28;1696943;-78
2020/12/22 03:52:48;;;;;;;13.80;2.20;;;13.20;99.90;;;;;;5024431;28;37080;-78
2020/12/22 03:55:14;;;;;;;14.63;2.50;;;13.20;99.90;;;;;;5059048;28;38977;-78
2020/12/22 03:57:49;;;;;;;14.07;2.33;;;13.20;99.90;;;;;;5065791;28;40527;-78
2020/12/22 04:00:18;;;;;;;19.67;2.90;;;13.20;99.90;;;;;;5033948;28;39392;-78
2020/12/22 04:02:44;;;;;;;14.15;3.28;;;13.20;99.90;;;;;;5052428;28;37834;-77
2020/12/22 04:05:13;;;;;;;15.95;2.53;;;13.20;99.90;;;;;;5031818;28;37779;-78
2020/12/22 04:07:48;;;;;;;16.60;2.20;;;13.30;99.90;;;;;;5045708;28;37502;-79
2020/12/22 04:10:17;;;;;;;13.35;2.22;;;13.20;99.90;;;;;;5052406;28;37806;-79
2020/12/22 04:12:44;;;;;;;12.32;2.30;;;13.30;99.90;;;;;;5041474;28;39324;-78
2020/12/22 04:15:12;;;;;;;11.45;1.55;;;13.20;99.90;;;;;;5033895;28;37386;-77
2020/12/22 04:17:43;;;;;;;15.60;2.92;;;13.20;99.90;;;;;;5062238;28;39124;-78
2020/12/22 04:20:10;;;;;;;16.88;2.75;;;13.20;99.90;;;;;;5033546;28;38872;-77
2020/12/22 04:22:36;;;;;;;15.98;3.38;;;13.20;99.90;;;;;;5054631;28;38304;-78
2020/12/22 04:25:03;;;;;;;15.93;3.38;;;13.10;99.90;;;;;;5044648;28;36556;-78
2020/12/22 04:27:29;;;;;;;19.55;3.30;;;13.10;99.90;;;;;;5039303;28;38366;-78
2020/12/22 04:29:56;;;;;;;15.90;3.00;;;13.00;99.90;;;;;;5054549;28;39383;-78
2020/12/22 04:32:27;;;;;;;13.48;2.85;;;13.00;99.90;;;;;;5027926;28;39126;-78
2020/12/22 04:34:56;;;;;;;15.55;2.85;;;13.00;99.90;;;;;;5034081;28;37561;-78
2020/12/22 04:37:22;;;;;;;21.13;3.45;;;13.00;99.90;;;;;;5033152;28;39043;-78
2020/12/22 04:39:48;;;;;;;11.68;2.85;;;13.00;99.90;;;;;;5034604;28;37137;-78
2020/12/22 04:42:26;;;;;;;13.00;2.30;;;13.10;99.90;;;;;;5026303;28;39028;-78
2020/12/22 04:44:55;;;;;;;18.88;2.67;;;13.10;99.90;;;;;;5042046;28;37860;-77
2020/12/22 04:47:25;;;;;;;18.10;3.13;;;13.00;99.90;;;;;;5041618;28;38957;-78
2020/12/22 04:49:55;;;;;;;19.85;3.20;;;13.10;99.90;;;;;;5024814;28;39523;-78
2020/12/22 04:52:23;;;;;;;16.75;2.90;;;13.10;99.90;;;;;;5038666;28;40698;-78
2020/12/22 04:54:52;;;;;;;24.50;3.58;;;13.10;99.90;;;;;;5036507;28;37692;-78
2020/12/22 04:57:26;;;;;;;19.52;2.70;;;13.10;99.90;;;;;;5046671;28;39000;-78
2020/12/22 04:59:52;;;;;;;16.02;2.47;;;13.10;99.90;;;;;;5044973;28;39002;-78
2020/12/22 05:02:25;;;;;;;20.67;3.20;;;13.10;99.90;;;;;;5041862;28;37043;-78
2020/12/22 05:04:51;;;;;;;20.95;2.88;;;13.20;99.90;;;;;;5027458;28;37145;-78
2020/12/22 05:07:17;;;;;;;14.50;2.67;;;13.10;99.90;;;;;;5044269;28;39439;-79
2020/12/22 05:09:45;;;;;;;12.63;2.90;;;13.10;99.90;;;;;;5033978;28;39565;-78
2020/12/22 05:12:14;;;;;;;16.92;2.63;;;13.20;99.90;;;;;;5044958;28;39793;-78
2020/12/22 05:14:44;;;;;;;15.68;2.75;;;13.10;99.90;;;;;;5061324;28;38638;-77
2020/12/22 05:17:17;;;;;;;21.25;4.43;;;13.10;99.90;;;;;;5061580;28;38210;-79
2020/12/22 05:19:47;;;;;;;13.80;2.33;;;13.10;99.90;;;;;;5033540;28;37911;-78
2020/12/22 05:22:14;;;;;;;20.88;2.75;;;13.00;99.90;;;;;;5046940;28;38192;-78
2020/12/22 05:24:46;;;;;;;13.10;2.17;;;13.00;99.90;;;;;;5043610;28;39161;-78
2020/12/22 05:27:12;;;;;;;17.58;2.10;;;13.00;99.90;;;;;;5038589;28;38933;-77
2020/12/22 05:29:38;;;;;;;13.73;2.42;;;13.00;99.90;;;;;;5038022;28;39384;-78
2020/12/22 05:32:04;;;;;;;19.15;3.15;;;13.00;99.90;;;;;;5048021;28;38134;-78
2020/12/22 05:34:31;;;;;;;20.08;2.80;;;13.00;99.90;;;;;;5045922;28;39915;-78
2020/12/22 05:37:03;;;;;;;17.35;3.20;;;13.00;99.90;;;;;;5050429;28;38300;-79
2020/12/22 05:39:36;;;;;;;19.58;4.07;;;13.00;99.90;;;;;;5041432;28;49362;-78
2020/12/22 05:42:12;;;;;;;20.90;3.72;;;12.90;99.90;;;;;;5051629;28;39619;-78
2020/12/22 05:44:47;;;;;;;18.88;3.60;;;12.90;99.90;;;;;;5039735;28;36179;-78
2020/12/22 05:47:16;;;;;;;14.00;2.55;;;12.90;99.90;;;;;;5053784;28;36004;-78
2020/12/22 05:50:02;;;;;;;16.13;3.13;;;12.90;99.90;;;;;;5030902;28;39585;-78
2020/12/22 05:52:35;;;;;;;16.73;3.47;;;12.90;99.90;;;;;;5028745;28;48990;-78
2020/12/22 05:55:04;;;;;;;17.60;3.35;;;12.90;99.90;;;;;;5034180;28;38411;-78
2020/12/22 05:57:31;;;;;;;13.20;2.72;;;12.90;99.90;;;;;;5038997;28;48405;-78
2020/12/22 05:59:57;;;;;;;20.63;3.92;;;12.80;99.90;;;;;;5048498;28;39247;-78
2020/12/22 06:02:39;;;;;;;19.67;3.28;;;12.80;99.90;;;;;;5030905;28;37496;-78
2020/12/22 06:05:05;;;;;;;15.57;3.33;;;12.80;99.90;;;;;;5036201;28;38737;-78
2020/12/22 06:07:37;;;;;;;16.80;3.15;;;12.70;99.90;;;;;;5034028;28;38630;-78
2020/12/22 06:10:03;;;;;;;21.77;3.08;;;12.70;99.90;;;;;;5042952;28;38761;-79
2020/12/22 06:12:38;;;;;;;21.35;3.38;;;12.70;99.90;;;;;;5038876;28;39600;-79
2020/12/22 06:15:04;;;;;;;15.98;2.90;;;12.70;99.90;;;;;;5043612;28;37210;-79
2020/12/22 06:17:36;;;;;;;19.13;2.60;;;12.70;99.90;;;;;;5041458;28;37655;-79
2020/12/22 06:20:07;;;;;;;15.55;2.92;;;12.70;99.90;;;;;;5038548;28;43585;-79
2020/12/22 06:22:41;;;;;;;21.88;3.22;;;12.70;99.90;;;;;;5006896;28;49244;-78
2020/12/22 06:25:10;;;;;;;19.92;3.05;;;12.80;99.90;;;;;;5040797;28;37561;-78
2020/12/22 06:27:37;;;;;;;15.73;2.72;;;12.80;99.90;;;;;;5047805;28;40443;-79
2020/12/22 06:30:03;;;;;;;19.15;2.60;;;12.80;99.90;;;;;;5047765;28;38443;-78
2020/12/22 06:32:29;;;;;;;15.02;2.35;;;12.90;99.90;;;;;;5039821;28;37750;-78
2020/12/22 06:35:28;;;;;;;15.32;1.92;;;12.90;99.90;;;;;;5051583;28;35944;-79
2020/12/22 06:37:55;;;;;;;21.98;3.22;;;12.90;99.90;;;;;;5029014;28;48072;-79
2020/12/22 06:40:54;;;;;;;15.25;2.40;;;12.90;99.90;;;;;;5046762;28;38581;-78
2020/12/22 06:43:41;;;;;;;15.88;2.22;;;12.90;99.90;;;;;;5044084;28;39942;-78
2020/12/22 06:46:37;;;;;;;10.70;1.92;;;12.80;99.90;;;;;;5047103;28;37514;-79
2020/12/22 06:49:07;;;;;;;20.05;3.00;;;12.70;99.90;;;;;;5034137;28;40135;-79
2020/12/22 06:51:36;;;;;;;21.15;2.65;;;12.70;99.90;;;;;;5047999;28;39399;-78
2020/12/22 06:54:12;;;;;;;16.63;3.28;;;12.70;99.90;;;;;;5035432;28;38855;-77
2020/12/22 06:56:50;;;;;;;21.48;3.38;;;12.70;99.90;;;;;;5057761;28;35747;-78
2020/12/22 06:59:41;;;;;;;21.10;3.30;;;12.60;99.90;;;;;;5061505;28;40144;-78
2020/12/22 07:02:36;;;;;;;22.17;3.78;;;12.60;99.90;;;;;;5054111;28;40309;-78
2020/12/22 07:05:06;;;;;;;19.70;3.22;;;12.60;99.90;;;;;;5031440;28;39081;-79
2020/12/22 07:07:55;;;;;;;27.23;4.40;;;12.60;99.90;;;;;;5034790;28;36454;-78
2020/12/22 07:10:22;;;;;;;33.72;4.70;;;12.50;99.90;;;;;;5055945;28;36672;-79
2020/12/22 07:12:50;;;;;;;37.58;5.88;;;12.50;99.90;;;;;;5038051;28;38489;-78
2020/12/22 07:15:19;;;;;;;32.20;5.28;;;12.50;99.90;;;;;;5052532;28;37565;-78
2020/12/22 07:17:46;;;;;;;24.02;4.60;;;12.50;99.90;;;;;;5054474;28;37537;-78
2020/12/22 07:20:13;;;;;;;33.45;4.85;;;12.40;99.90;;;;;;5030020;28;37139;-78
2020/12/22 07:22:39;;;;;;;37.35;5.25;;;12.40;99.90;;;;;;5041402;28;37973;-78
2020/12/22 07:25:07;;;;;;;31.67;4.82;;;12.40;99.90;;;;;;5036636;28;38097;-78
2020/12/22 07:27:33;;;;;;;39.30;5.10;;;12.30;99.90;;;;;;5040572;28;37276;-78
2020/12/22 07:29:59;;;;;;;32.38;4.78;;;12.40;99.90;;;;;;5053149;28;39475;-78
2020/12/22 07:32:25;;;;;;;39.53;5.93;;;12.40;99.90;;;;;;5060273;28;38101;-78
2020/12/22 07:34:51;;;;;;;32.00;5.72;;;12.40;99.90;;;;;;5031185;28;38969;-77
2020/12/22 07:37:18;;;;;;;28.00;4.57;;;12.40;99.90;;;;;;5053162;28;34910;-78
2020/12/22 07:39:44;;;;;;;32.70;5.22;;;12.40;99.90;;;;;;5035485;28;39228;-78
2020/12/22 07:42:13;;;;;;;26.33;4.30;;;12.40;99.90;;;;;;5042436;28;38793;-78
2020/12/22 07:44:41;;;;;;;24.25;4.55;;;12.40;99.90;;;;;;5063539;28;39454;-78
2020/12/22 07:47:08;;;;;;;30.88;4.85;;;12.40;99.90;;;;;;5039276;28;39088;-78
2020/12/22 07:49:35;;;;;;;26.52;5.22;;;12.40;99.90;;;;;;5025970;28;37976;-78
2020/12/22 07:52:01;;;;;;;28.00;4.63;;;12.50;99.90;;;;;;5030961;28;37936;-78
2020/12/22 07:54:28;;;;;;;27.48;3.47;;;12.50;99.90;;;;;;5056964;28;37258;-78
2020/12/22 07:56:58;;;;;;;28.58;4.32;;;12.60;99.90;;;;;;5059737;28;36423;-78
2020/12/22 07:59:25;;;;;;;28.58;5.45;;;12.60;99.90;;;;;;5059677;28;37684;-77
2020/12/22 08:01:51;;;;;;;25.48;4.25;;;12.60;99.90;;;;;;5035057;28;39787;-78
2020/12/22 08:04:18;;;;;;;29.58;5.38;;;12.70;99.90;;;;;;5056568;28;37650;-78
2020/12/22 08:07:01;;;;;;;31.77;5.93;;;12.60;99.90;;;;;;5049986;28;37245;-78
2020/12/22 08:09:28;;;;;;;28.55;4.65;;;12.70;99.90;;;;;;5047441;28;47359;-78
2020/12/22 08:11:56;;;;;;;36.17;5.97;;;12.70;99.90;;;;;;5057886;28;38132;-79
2020/12/22 08:14:24;;;;;;;37.60;6.07;;;12.70;99.90;;;;;;5045031;28;38487;-77
2020/12/22 08:17:06;;;;;;;30.05;5.50;;;12.70;99.90;;;;;;5043636;28;37400;-78
2020/12/22 08:19:37;;;;;;;32.47;5.65;;;12.70;99.90;;;;;;5041709;28;48316;-78
2020/12/22 08:22:06;;;;;;;31.08;3.80;;;12.70;99.90;;;;;;5038101;28;38856;-78
2020/12/22 08:24:36;;;;;;;28.60;4.85;;;12.70;99.90;;;;;;5055507;28;40372;-77
2020/12/22 08:27:04;;;;;;;37.58;6.57;;;12.60;99.90;;;;;;5038518;28;36743;-77
2020/12/22 08:29:30;;;;;;;33.08;5.32;;;12.70;99.90;;;;;;5040673;28;38414;-78
2020/12/22 08:32:00;;;;;;;22.02;4.00;;;12.60;99.90;;;;;;5040381;28;38125;-78
2020/12/22 08:34:27;;;;;;;28.92;4.28;;;12.70;99.90;;;;;;5039701;28;46657;-78
2020/12/22 08:36:54;;;;;;;23.25;4.63;;;12.60;99.90;;;;;;5043642;28;38751;-78
2020/12/22 08:39:25;;;;;;;29.40;5.53;;;12.60;99.90;;;;;;5042810;28;37859;-77
2020/12/22 08:41:53;;;;;;;38.10;5.80;;;12.60;99.90;;;;;;5040976;28;40263;-77
2020/12/22 08:44:21;;;;;;;30.73;5.30;;;12.60;99.90;;;;;;5040121;28;39376;-77
2020/12/22 08:46:47;;;;;;;37.88;5.10;;;12.60;99.90;;;;;;5043299;28;37161;-77
2020/12/22 08:49:21;;;;;;;29.00;4.85;;;12.50;99.90;;;;;;5043741;28;39609;-75
2020/12/22 08:51:48;;;;;;;34.97;5.22;;;12.50;99.90;;;;;;5039138;28;38661;-77
2020/12/22 08:54:15;;;;;;;34.20;5.00;;;12.40;99.90;;;;;;5037561;28;38445;-77
2020/12/22 08:56:42;;;;;;;28.38;5.60;;;12.40;99.90;;;;;;5051315;28;36095;-77
2020/12/22 08:59:10;;;;;;;34.88;5.55;;;12.30;99.90;;;;;;5033417;28;38980;-77
2020/12/22 09:01:43;;;;;;;25.92;4.75;;;12.30;99.90;;;;;;5035772;28;37920;-77
2020/12/22 09:04:11;;;;;;;30.52;5.00;;;12.20;99.90;;;;;;5039694;28;38449;-76
2020/12/22 09:06:42;;;;;;;31.52;4.88;;;12.20;99.90;;;;;;5056885;28;36289;-76
2020/12/22 09:09:22;;;;;;;29.00;5.88;;;12.20;99.90;;;;;;5043680;28;39239;-76
2020/12/22 09:11:48;;;;;;;30.35;4.97;;;12.10;99.90;;;;;;5041150;28;39846;-76
2020/12/22 09:14:19;;;;;;;35.50;5.65;;;12.10;99.90;;;;;;5039267;28;38282;-76
2020/12/22 09:16:56;;;;;;;39.55;5.13;;;12.10;99.90;;;;;;5040192;28;36503;-76
2020/12/22 09:19:42;;;;;;;35.97;4.93;;;12.10;99.90;;;;;;5038577;28;37899;-76
2020/12/22 09:22:08;;;;;;;33.53;5.03;;;12.10;99.90;;;;;;5038940;28;38781;-76
2020/12/22 09:24:35;;;;;;;41.03;6.43;;;12.00;99.90;;;;;;5044263;28;40027;-77
2020/12/22 09:27:08;;;;;;;49.38;5.93;;;12.00;99.90;;;;;;5041388;28;37355;-76
2020/12/22 09:29:36;;;;;;;31.63;5.35;;;11.90;99.90;;;;;;5060929;28;47679;-76
2020/12/22 09:32:04;;;;;;;49.08;6.20;;;12.00;99.90;;;;;;5047518;28;38929;-77
2020/12/22 09:34:32;;;;;;;30.23;4.70;;;11.90;99.90;;;;;;5045755;28;38458;-75
2020/12/22 09:37:00;;;;;;;26.30;3.70;;;11.90;99.90;;;;;;5044073;28;37566;-76
2020/12/22 09:39:28;;;;;;;29.80;4.75;;;11.90;99.90;;;;;;5063831;28;39566;-76
2020/12/22 09:41:54;;;;;;;37.75;4.80;;;11.80;99.90;;;;;;5041397;28;39440;-76
2020/12/22 09:44:21;;;;;;;20.70;3.08;;;11.80;99.90;;;;;;5036526;28;40160;-76
2020/12/22 09:46:53;;;;;;;27.05;4.25;;;11.80;99.90;;;;;;5058250;28;37149;-76
2020/12/22 09:49:20;;;;;;;26.88;3.45;;;11.70;99.90;;;;;;5057256;28;41665;-76
2020/12/22 09:51:47;;;;;;;20.15;4.03;;;11.70;99.90;;;;;;5041485;28;37419;-76
2020/12/22 09:54:13;;;;;;;19.03;2.93;;;11.70;99.90;;;;;;5046347;28;39501;-76
2020/12/22 09:56:40;;;;;;;13.30;2.60;;;11.60;99.90;;;;;;5059758;28;37065;-76
2020/12/22 09:59:06;;;;;;;9.53;2.20;;;11.50;99.90;;;;;;5056032;28;38279;-75
2020/12/22 10:01:33;;;;;;;16.13;3.10;;;11.50;99.90;;;;;;5058703;28;38078;-75
2020/12/22 10:03:59;;;;;;;14.15;2.78;;;11.40;99.90;;;;;;5059506;28;39950;-76
2020/12/22 10:06:26;;;;;;;12.75;3.40;;;11.40;99.90;;;;;;5042384;28;37946;-76
2020/12/22 10:08:53;;;;;;;18.13;3.80;;;11.40;99.90;;;;;;5038804;28;37690;-77
2020/12/22 10:11:23;;;;;;;12.73;4.00;;;11.40;99.90;;;;;;5056788;28;38053;-76
2020/12/22 10:13:50;;;;;;;14.83;3.10;;;11.40;99.90;;;;;;5047394;28;38431;-76
2020/12/22 10:16:20;;;;;;;10.93;2.87;;;11.40;99.90;;;;;;5027238;28;34756;-77
2020/12/22 10:18:46;;;;;;;16.23;3.13;;;11.40;99.90;;;;;;5058638;28;38689;-76
2020/12/22 10:21:15;;;;;;;9.80;3.40;;;11.40;99.90;;;;;;5050591;28;38688;-77
2020/12/22 10:23:43;;;;;;;15.90;4.57;;;11.30;99.90;;;;;;5056976;28;41116;-77
2020/12/22 10:26:11;;;;;;;12.20;4.33;;;11.20;99.90;;;;;;5050623;28;39649;-76
2020/12/22 10:28:39;;;;;;;19.43;4.97;;;11.20;99.90;;;;;;5035009;28;38753;-76
2020/12/22 10:31:10;;;;;;;11.80;4.53;;;11.20;99.90;;;;;;5027961;28;38906;-76
2020/12/22 10:33:36;;;;;;;15.57;3.73;;;11.20;99.90;;;;;;5051508;28;39305;-76
2020/12/22 10:36:03;;;;;;;7.53;2.90;;;11.20;99.90;;;;;;5050697;28;37828;-76
2020/12/22 10:38:32;;;;;;;12.05;2.60;;;11.20;99.90;;;;;;5059865;28;39147;-77
2020/12/22 10:40:58;;;;;;;11.50;2.80;;;11.10;99.90;;;;;;5052705;28;39707;-76
2020/12/22 10:43:24;;;;;;;15.40;4.33;;;11.10;99.90;;;;;;5048942;28;37877;-77
2020/12/22 10:45:50;;;;;;;13.23;2.80;;;11.20;99.90;;;;;;5049451;28;37205;-77
2020/12/22 10:48:16;;;;;;;15.20;3.80;;;11.20;99.90;;;;;;5047084;28;37564;-77
2020/12/22 10:50:42;;;;;;;14.37;3.03;;;11.20;99.90;;;;;;5064243;28;37933;-76
2020/12/22 10:53:08;;;;;;;11.25;3.90;;;11.20;99.90;;;;;;5063940;28;37285;-76
2020/12/22 10:55:35;;;;;;;10.00;3.17;;;11.30;99.90;;;;;;5054968;28;37158;-76
2020/12/22 10:58:04;;;;;;;12.40;3.72;;;11.40;99.90;;;;;;5048869;28;38142;-77
2020/12/22 11:00:30;;;;;;;13.38;2.70;;;11.40;99.90;;;;;;5062631;27;38690;-76
2020/12/22 11:03:01;;;;;;;13.95;2.88;;;11.40;99.90;;;;;;5056031;28;37527;-76
2020/12/22 11:08:12;;;;;;;8.87;2.70;;;11.60;99.90;;;;;;5054880;28;40112;-77
2020/12/22 11:10:38;;;;;;;7.07;2.08;;;11.60;99.90;;;;;;5049158;28;39050;-77
2020/12/22 11:13:04;;;;;;;8.48;2.35;;;11.70;99.90;;;;;;5047435;28;38337;-76
2020/12/22 11:15:31;;;;;;;10.48;2.40;;;11.70;99.90;;;;;;5044327;28;38272;-75
2020/12/22 11:17:57;;;;;;;9.48;2.08;;;11.70;99.90;;;;;;5047569;28;38610;-78
2020/12/22 11:20:23;;;;;;;9.85;2.17;;;11.90;99.90;;;;;;5064637;28;37707;-78
2020/12/22 11:22:49;;;;;;;11.90;2.03;;;12.10;99.90;;;;;;5059052;28;37719;-76
2020/12/22 11:25:16;;;;;;;7.15;1.90;;;12.30;99.90;;;;;;5045986;28;38252;-77
2020/12/22 11:27:42;;;;;;;9.15;1.60;;;12.30;99.90;;;;;;5063459;28;37711;-76
2020/12/22 11:30:08;;;;;;;10.95;2.08;;;12.30;99.90;;;;;;5046898;28;39975;-76
2020/12/22 11:32:35;;;;;;;8.82;1.75;;;12.30;99.90;;;;;;5052476;28;39217;-77
2020/12/22 11:35:06;;;;;;;12.60;1.90;;;12.30;99.90;;;;;;5060963;28;37875;-76
2020/12/22 11:37:32;;;;;;;8.05;1.85;;;12.10;99.90;;;;;;5061888;28;47360;-76
2020/12/22 11:39:58;;;;;;;11.65;1.88;;;11.90;99.90;;;;;;5044113;28;37865;-76
2020/12/22 11:42:24;;;;;;;9.27;1.75;;;11.70;99.90;;;;;;5042037;28;37085;-76
2020/12/22 11:44:50;;;;;;;5.22;1.70;;;11.60;99.90;;;;;;5043867;28;37621;-76
2020/12/22 11:47:16;;;;;;;6.43;1.70;;;11.50;99.90;;;;;;5054891;28;38227;-76
2020/12/22 11:49:42;;;;;;;7.83;1.60;;;11.50;99.90;;;;;;5059744;28;37753;-76
2020/12/22 11:52:09;;;;;;;5.10;1.55;;;11.50;99.90;;;;;;5050559;28;39236;-76
2020/12/22 11:54:36;;;;;;;7.23;1.80;;;11.50;99.90;;;;;;5039733;28;36845;-76
2020/12/22 11:57:03;;;;;;;2.20;1.60;;;11.50;99.90;;;;;;5046601;28;40277;-76
2020/12/22 11:59:29;;;;;;;4.82;1.90;;;11.50;99.90;;;;;;5042516;28;39865;-76
2020/12/22 12:01:56;;;;;;;4.63;1.30;;;11.50;99.90;;;;;;5038299;28;37421;-77
2020/12/22 12:04:22;;;;;;;8.80;1.50;;;11.60;99.90;;;;;;5046058;28;36863;-77
2020/12/22 12:06:49;;;;;;;7.82;1.50;;;11.60;99.90;;;;;;5046564;28;39883;-77
2020/12/22 12:09:16;;;;;;;8.75;1.50;;;11.80;99.90;;;;;;5037111;28;39220;-79
2020/12/22 12:11:46;;;;;;;3.78;1.10;;;11.90;99.90;;;;;;5047337;28;38646;-77
2020/12/22 12:14:12;;;;;;;5.78;1.27;;;12.10;99.90;;;;;;5038797;28;37742;-76
2020/12/22 12:16:38;;;;;;;6.60;1.70;;;12.00;99.90;;;;;;5033462;28;39277;-77
2020/12/22 12:19:05;;;;;;;5.88;1.67;;;12.10;99.90;;;;;;5045637;28;38502;-77
2020/12/22 12:21:31;;;;;;;5.40;1.23;;;12.30;99.90;;;;;;5037578;28;38637;-77
2020/12/22 12:23:57;;;;;;;6.15;1.40;;;12.40;99.90;;;;;;5061561;28;37357;-76
2020/12/22 12:26:23;;;;;;;4.75;1.30;;;12.30;99.90;;;;;;5046077;28;38637;-77
2020/12/22 12:28:50;;;;;;;7.40;1.48;;;12.30;99.90;;;;;;5063191;28;40271;-78
2020/12/22 12:31:17;;;;;;;8.52;2.13;;;12.30;99.90;;;;;;5056983;28;37613;-77
2020/12/22 12:33:43;;;;;;;4.75;1.48;;;12.20;99.90;;;;;;5046976;28;36050;-76
2020/12/22 12:36:13;;;;;;;4.68;1.60;;;12.10;99.90;;;;;;5058993;28;37737;-76
2020/12/22 12:38:39;;;;;;;3.22;1.20;;;12.10;99.90;;;;;;5052016;28;39085;-77
2020/12/22 12:41:09;;;;;;;3.45;1.50;;;12.20;99.90;;;;;;5041953;28;39082;-77
2020/12/22 12:43:35;;;;;;;4.15;1.60;;;12.30;99.90;;;;;;5036298;28;36892;-77
2020/12/22 12:46:03;;;;;;;4.65;1.42;;;12.30;99.90;;;;;;5041296;28;38308;-76
2020/12/22 12:48:29;;;;;;;5.95;1.42;;;12.40;99.90;;;;;;5041497;28;38631;-77
2020/12/22 12:50:55;;;;;;;9.93;1.77;;;12.40;99.90;;;;;;5063165;28;37762;-77